createdAt,value
2023-03-26T00:04:42.741Z,1.00
2023-03-26T00:10:07.456Z,1.77
2023-03-26T00:15:33.495Z,2.47
2023-03-26T00:20:57.417Z,1.05
2023-03-26T00:26:21.624Z,0.70
2023-03-26T00:31:47.095Z,0.93
2023-03-26T00:37:12.611Z,1.08
2023-03-26T00:42:36.457Z,0.63
2023-03-26T00:48:02.753Z,2.35
2023-03-26T00:53:26.695Z,0.75
2023-03-26T00:58:51.062Z,1.80
2023-03-26T01:04:27.656Z,0.80
2023-03-26T01:09:52.957Z,1.15
2023-03-26T01:15:16.933Z,0.60
2023-03-26T01:20:46.638Z,3.70
2023-03-26T01:26:23.307Z,0.82
2023-03-26T01:31:55.878Z,0.90
2023-03-26T01:37:27.187Z,0.70
2023-03-26T01:42:59.175Z,0.73
2023-03-26T01:48:31.239Z,0.77
2023-03-26T01:53:55.756Z,1.75
2023-03-26T01:59:37.169Z,0.90
2023-03-26T02:05:06.057Z,0.73
2023-03-26T02:10:32.127Z,0.70
2023-03-26T02:15:59.710Z,1.20
2023-03-26T02:21:26.130Z,0.68
2023-03-26T02:26:49.979Z,1.10
2023-03-26T02:32:15.255Z,1.15
2023-03-26T02:37:39.465Z,0.80
2023-03-26T02:43:14.506Z,0.70
2023-03-26T02:48:42.671Z,1.67
2023-03-26T02:54:13.695Z,2.92
2023-03-26T02:59:57.884Z,1.25
2023-03-26T03:05:46.152Z,6.32
2023-03-26T03:11:25.696Z,0.98
2023-03-26T03:16:49.509Z,0.80
2023-03-26T03:22:14.842Z,2.35
2023-03-26T03:27:40.007Z,3.08
2023-03-26T03:33:08.279Z,2.05
2023-03-26T03:38:33.562Z,2.00
2023-03-26T03:43:59.417Z,0.70
2023-03-26T03:49:26.134Z,3.90
2023-03-26T03:54:51.864Z,3.33
2023-03-26T04:00:23.071Z,0.88
2023-03-26T04:06:01.789Z,2.00
2023-03-26T04:11:27.573Z,1.48
2023-03-26T04:17:21.932Z,2.28
2023-03-26T04:22:46.975Z,1.33
2023-03-26T04:28:23.401Z,2.15
2023-03-26T04:34:08.431Z,2.88
2023-03-26T04:39:40.725Z,1.83
2023-03-26T04:45:34.940Z,1.92
2023-03-26T04:50:58.926Z,1.42
2023-03-26T04:56:35.980Z,2.95
2023-03-26T05:02:15.636Z,2.03
2023-03-26T05:07:46.938Z,1.65
2023-03-26T05:13:13.945Z,2.95
2023-03-26T05:18:46.745Z,2.20
2023-03-26T05:24:11.397Z,2.83
2023-03-26T05:29:35.715Z,1.30
2023-03-26T05:35:01.230Z,2.33
2023-03-26T05:40:25.973Z,1.98
2023-03-26T05:45:55.722Z,2.78
2023-03-26T05:51:26.009Z,2.75
2023-03-26T05:57:15.841Z,4.40
2023-03-26T06:02:58.885Z,7.05
2023-03-26T06:08:43.166Z,2.83
2023-03-26T06:14:07.361Z,8.20
2023-03-26T06:19:33.670Z,2.75
2023-03-26T06:25:09.147Z,3.33
2023-03-26T06:30:56.377Z,2.92
2023-03-26T06:36:29.220Z,2.92
2023-03-26T06:41:54.547Z,2.25
2023-03-26T06:47:37.777Z,2.78
2023-03-26T06:53:20.027Z,1.30
2023-03-26T06:58:51.033Z,1.60
2023-03-26T07:04:35.437Z,1.33
2023-03-26T07:10:25.324Z,3.13
2023-03-26T07:15:53.317Z,4.90
2023-03-26T07:21:23.567Z,1.65
2023-03-26T07:26:56.448Z,2.30
2023-03-26T07:32:29.182Z,2.58
2023-03-26T07:38:24.690Z,1.38
2023-03-26T07:44:23.676Z,3.20
2023-03-26T07:49:58.307Z,1.35
2023-03-26T07:55:52.349Z,3.35
2023-03-26T08:01:59.087Z,1.70
2023-03-26T08:07:52.840Z,5.30
2023-03-26T08:13:27.959Z,4.72
2023-03-26T08:19:00.686Z,3.10
2023-03-26T08:24:34.147Z,2.03
2023-03-26T08:30:06.496Z,3.70
2023-03-26T08:35:31.067Z,1.23
2023-03-26T08:41:28.918Z,2.42
2023-03-26T08:47:38.369Z,1.80
2023-03-26T08:53:37.613Z,2.10
2023-03-26T08:59:42.445Z,0.93
2023-03-26T09:05:56.458Z,2.78
2023-03-26T09:11:51.446Z,1.30
2023-03-26T09:17:55.924Z,2.72
2023-03-26T09:23:46.029Z,2.10
2023-03-26T09:29:51.308Z,1.85
2023-03-26T09:35:42.444Z,3.40
2023-03-26T09:41:17.286Z,3.22
2023-03-26T09:46:55.529Z,1.67
2023-03-26T09:52:52.596Z,2.20
2023-03-26T09:58:42.190Z,1.80
2023-03-26T10:04:33.345Z,1.55
2023-03-26T10:10:05.562Z,2.22
2023-03-26T10:15:37.081Z,1.25
2023-03-26T10:21:08.354Z,3.40
2023-03-26T10:32:10.980Z,2.78
2023-03-26T10:37:46.690Z,1.33
2023-03-26T10:43:30.023Z,3.08
2023-03-26T10:49:24.518Z,4.25
2023-03-26T10:54:56.351Z,2.45
2023-03-26T11:00:25.350Z,1.60
2023-03-26T11:05:56.620Z,3.92
2023-03-26T11:11:26.560Z,2.20
2023-03-26T11:16:59.014Z,2.00
2023-03-26T11:22:31.206Z,3.47
2023-03-26T11:28:09.433Z,0.82
2023-03-26T11:33:45.645Z,3.42
2023-03-26T11:39:15.463Z,1.85
2023-03-26T11:44:40.585Z,1.67
2023-03-26T11:50:16.553Z,1.38
2023-03-26T11:55:45.513Z,1.35
2023-03-26T12:01:16.014Z,1.25
2023-03-26T12:06:51.377Z,4.07
2023-03-26T12:12:15.248Z,0.98
2023-03-26T12:17:42.170Z,2.03
2023-03-26T12:23:08.268Z,0.77
2023-03-26T12:28:33.281Z,5.30
2023-03-26T12:34:08.070Z,1.00
2023-03-26T12:40:10.246Z,2.00
2023-03-26T12:45:24.633Z,1.38
2023-03-26T12:51:02.945Z,0.50
2023-03-26T12:56:38.559Z,0.70
2023-03-26T13:02:16.944Z,2.13
2023-03-26T13:08:00.550Z,0.70
2023-03-26T13:13:57.676Z,0.57
2023-03-26T13:19:28.922Z,0.80
2023-03-26T13:25:04.061Z,0.80
2023-03-26T13:30:37.916Z,0.60
2023-03-26T13:36:22.490Z,0.55
2023-03-26T13:42:00.101Z,0.75
2023-03-26T13:47:32.015Z,0.60
2023-03-26T13:53:00.136Z,0.60
2023-03-26T13:58:34.751Z,5.32
2023-03-26T14:04:06.754Z,0.60
2023-03-26T14:09:33.728Z,1.05
2023-03-26T14:15:02.278Z,1.77
2023-03-26T14:21:00.612Z,2.47
2023-03-26T14:26:38.343Z,1.05
2023-03-26T14:32:24.104Z,1.75
2023-03-26T14:38:11.884Z,0.80
2023-03-26T14:44:11.813Z,1.52
2023-03-26T14:50:15.587Z,0.40
2023-03-26T14:56:04.018Z,0.70
2023-03-26T15:01:29.229Z,0.68
2023-03-26T15:07:27.133Z,1.00
2023-03-26T15:13:10.180Z,0.70
2023-03-26T15:19:21.616Z,0.50
2023-03-26T15:25:15.325Z,0.98
2023-03-26T15:31:21.373Z,1.17
2023-03-26T15:37:12.737Z,0.60
2023-03-26T15:42:46.763Z,1.30
2023-03-26T15:48:36.568Z,1.65
2023-03-26T15:54:08.160Z,0.73
2023-03-26T15:59:41.838Z,2.75
2023-03-26T16:05:27.743Z,1.92
2023-03-26T16:10:54.122Z,1.42
2023-03-26T16:16:24.029Z,3.17
2023-03-26T16:21:57.702Z,1.33
2023-03-26T16:27:32.148Z,1.00
2023-03-26T16:32:58.719Z,1.50
2023-03-26T16:38:27.326Z,2.13
2023-03-26T16:44:06.947Z,5.18
2023-03-26T16:49:43.037Z,3.42
2023-03-26T16:55:19.430Z,4.93
2023-03-26T17:00:49.339Z,6.25
2023-03-26T17:06:31.325Z,5.05
2023-03-26T17:12:04.633Z,11.18
2023-03-26T17:17:57.977Z,6.65
2023-03-26T17:23:31.729Z,5.32
2023-03-26T17:29:22.602Z,5.85
2023-03-26T17:35:02.154Z,3.88
2023-03-26T17:40:44.685Z,6.55
2023-03-26T17:46:23.224Z,2.50
2023-03-26T17:51:51.418Z,4.63
2023-03-26T17:57:20.001Z,5.38
2023-03-26T18:02:50.907Z,3.35
2023-03-26T18:08:38.173Z,3.17
2023-03-26T18:14:32.921Z,3.80
2023-03-26T18:20:07.445Z,4.50
2023-03-26T18:25:34.182Z,4.13
2023-03-26T18:31:09.731Z,3.88
2023-03-26T18:36:34.917Z,4.90
2023-03-26T18:41:59.343Z,5.53
2023-03-26T18:47:23.841Z,4.43
2023-03-26T18:52:53.394Z,4.35
2023-03-26T18:58:25.691Z,12.00
2023-03-26T19:03:50.504Z,9.65
2023-03-26T19:09:30.456Z,9.70
2023-03-26T19:14:58.553Z,8.43
2023-03-26T19:20:26.212Z,5.78
2023-03-26T19:25:54.805Z,6.75
2023-03-26T19:31:24.357Z,7.05
2023-03-26T19:36:58.376Z,4.70
2023-03-26T19:42:44.096Z,11.02
2023-03-26T19:48:15.575Z,16.38
2023-03-26T19:53:44.702Z,17.58
2023-03-26T19:59:09.941Z,12.32
2023-03-26T20:04:33.666Z,12.35
2023-03-26T20:09:58.166Z,6.93
2023-03-26T20:15:25.456Z,8.57
2023-03-26T20:20:49.200Z,7.88
2023-03-26T20:26:14.962Z,7.10
2023-03-26T20:31:42.055Z,5.53
2023-03-26T20:37:06.061Z,5.60
2023-03-26T20:42:29.859Z,6.28
2023-03-26T20:47:55.078Z,6.60
2023-03-26T20:53:20.415Z,7.30
2023-03-26T20:58:45.761Z,5.80
2023-03-26T21:04:11.703Z,8.30
2023-03-26T21:09:36.429Z,9.02
2023-03-26T21:20:28.994Z,8.77
2023-03-26T21:26:02.993Z,3.88
2023-03-26T21:31:31.005Z,4.28
2023-03-26T21:36:56.939Z,2.13
2023-03-26T21:42:21.711Z,2.03
2023-03-26T21:47:46.859Z,1.88
2023-03-26T21:53:15.422Z,4.45
2023-03-26T21:58:48.844Z,13.73
2023-03-26T22:04:16.943Z,5.78
2023-03-26T22:09:43.730Z,8.40
2023-03-26T22:15:08.378Z,5.88
2023-03-26T22:20:32.488Z,2.38
2023-03-26T22:25:57.728Z,3.35
2023-03-26T22:31:22.479Z,2.80
2023-03-26T22:36:46.275Z,2.38
2023-03-26T22:42:11.457Z,3.55
2023-03-26T22:47:35.556Z,5.80
2023-03-26T22:52:59.375Z,4.35
2023-03-26T22:58:25.100Z,3.28
2023-03-26T23:03:48.884Z,4.82
2023-03-26T23:09:14.756Z,4.53
2023-03-26T23:14:39.837Z,2.10
2023-03-26T23:20:06.151Z,1.38
2023-03-26T23:25:30.617Z,3.92
2023-03-26T23:30:55.954Z,4.35
2023-03-26T23:36:21.114Z,3.95
2023-03-26T23:41:44.940Z,4.63
2023-03-26T23:47:10.919Z,1.70
2023-03-26T23:52:34.780Z,2.17
2023-03-26T23:57:58.686Z,2.65
